createdAt,value
2018-07-15T18:32:10.071Z,24.81
2018-07-15T18:39:53.862Z,29.37
2018-07-15T18:45:50.686Z,27.90
2018-07-15T18:48:24.540Z,27.30
2018-07-15T18:51:30.295Z,26.11
2018-07-15T18:54:02.641Z,26.21
2018-07-15T18:56:37.619Z,26.55
2018-07-15T18:59:12.936Z,26.79
2018-07-15T19:01:50.912Z,27.08
2018-07-15T19:04:25.346Z,27.16
2018-07-15T19:06:58.492Z,27.55
2018-07-15T19:09:32.156Z,27.81
2018-07-15T19:12:05.011Z,28.20
2018-07-15T19:14:41.627Z,28.29
2018-07-15T19:17:17.412Z,28.60
2018-07-15T19:20:00.609Z,28.53
2018-07-15T19:22:33.940Z,28.97
2018-07-15T19:25:10.575Z,29.28
2018-07-15T19:27:44.883Z,29.46
2018-07-15T19:30:17.953Z,29.31
2018-07-15T19:32:52.637Z,29.42
2018-07-15T19:35:34.687Z,29.63
2018-07-15T19:38:10.743Z,30.15
2018-07-15T19:40:44.623Z,30.96
2018-07-15T19:43:21.652Z,31.18
2018-07-15T19:46:00.792Z,31.36
2018-07-15T19:48:35.693Z,31.57
2018-07-15T19:51:11.117Z,31.82
2018-07-15T19:53:47.324Z,31.77
2018-07-15T19:56:21.108Z,32.05
2018-07-15T19:58:53.639Z,32.35
2018-07-15T20:01:30.034Z,32.36
2018-07-15T20:04:02.381Z,32.35
2018-07-15T20:06:40.737Z,32.67
2018-07-15T20:09:14.273Z,32.97
2018-07-15T20:12:03.324Z,32.98
2018-07-15T20:14:37.815Z,33.76
2018-07-15T20:17:16.544Z,35.21
2018-07-15T20:19:49.810Z,35.93
2018-07-15T20:22:25.848Z,36.16
2018-07-15T20:25:03.487Z,36.66
2018-07-15T20:27:37.683Z,36.40
2018-07-15T20:30:17.243Z,36.28
2018-07-15T20:32:55.508Z,36.03
2018-07-15T20:35:32.702Z,36.03
2018-07-15T20:38:12.196Z,35.75
2018-07-15T20:40:47.037Z,35.78
2018-07-15T20:43:20.019Z,35.93
2018-07-15T20:45:54.812Z,35.93
2018-07-15T20:48:29.272Z,36.05
2018-07-15T20:51:05.274Z,35.96
2018-07-15T20:53:40.225Z,36.02
2018-07-15T20:56:14.466Z,36.32
2018-07-15T20:58:50.600Z,36.45
